createdAt,value
2019-01-26T00:00:52.746Z,5.20
2019-01-26T00:15:50.624Z,5.53
2019-01-26T00:30:50.568Z,7.05
2019-01-26T00:45:50.925Z,4.87
2019-01-26T01:00:50.871Z,5.55
2019-01-26T01:15:50.781Z,5.95
2019-01-26T01:30:51.231Z,6.62
2019-01-26T01:45:51.105Z,6.40
2019-01-26T02:00:51.054Z,5.87
2019-01-26T02:15:52.979Z,6.75
2019-01-26T02:30:51.725Z,6.80
2019-01-26T02:45:50.203Z,7.78
2019-01-26T03:00:53.795Z,7.45
2019-01-26T03:15:51.146Z,7.67
2019-01-26T03:30:51.635Z,7.90
2019-01-26T03:45:50.534Z,8.08
2019-01-26T04:00:51.436Z,10.23
2019-01-26T04:15:51.873Z,10.00
2019-01-26T04:30:51.273Z,12.13
2019-01-26T04:45:50.799Z,11.05
2019-01-26T05:00:52.635Z,12.28
2019-01-26T05:15:50.450Z,13.35
2019-01-26T05:30:51.416Z,14.87
2019-01-26T05:45:50.871Z,14.85
2019-01-26T06:00:50.881Z,15.23
2019-01-26T06:15:50.732Z,15.55
2019-01-26T06:30:50.637Z,18.00
2019-01-26T06:45:50.964Z,19.00
2019-01-26T07:00:50.965Z,18.90
2019-01-26T07:15:51.011Z,18.73
2019-01-26T07:45:51.187Z,21.52
2019-01-26T08:00:51.113Z,20.37
2019-01-26T08:15:50.582Z,23.30
2019-01-26T08:30:50.961Z,22.93
2019-01-26T08:45:51.417Z,23.40
2019-01-26T09:00:51.594Z,20.57
2019-01-26T09:15:51.333Z,20.65
2019-01-26T09:30:50.644Z,20.30
2019-01-26T09:45:50.549Z,20.08
2019-01-26T10:00:50.520Z,20.75
2019-01-26T10:15:50.617Z,20.80
2019-01-26T10:30:55.466Z,19.67
2019-01-26T10:45:52.276Z,21.33
2019-01-26T11:00:51.243Z,18.70
2019-01-26T11:15:50.688Z,19.02
2019-01-26T11:30:50.655Z,19.40
2019-01-26T11:45:56.073Z,20.15
2019-01-26T12:15:50.976Z,20.25
2019-01-26T12:30:50.872Z,21.30
2019-01-26T12:45:51.385Z,20.57
2019-01-26T13:00:51.489Z,18.57
2019-01-26T13:15:53.832Z,20.23
2019-01-26T13:30:53.553Z,21.82
2019-01-26T13:45:54.894Z,20.52
2019-01-26T14:00:59.811Z,21.25
2019-01-26T14:15:53.400Z,22.70
2019-01-26T14:30:55.748Z,23.70
2019-01-26T14:45:51.244Z,24.15
2019-01-26T15:00:50.648Z,21.45
2019-01-26T15:15:51.116Z,25.25
2019-01-26T15:30:51.003Z,26.82
2019-01-26T15:45:51.695Z,25.32
2019-01-26T16:00:51.453Z,22.80
2019-01-26T16:15:51.086Z,23.83
2019-01-26T16:30:53.366Z,27.32
2019-01-26T16:45:51.717Z,27.17
2019-01-26T17:00:53.482Z,31.07
2019-01-26T17:15:51.092Z,28.83
2019-01-26T17:30:50.996Z,26.15
2019-01-26T17:45:50.667Z,28.32
2019-01-26T18:00:55.932Z,24.57
2019-01-26T18:15:55.403Z,23.73
2019-01-26T18:30:54.412Z,22.87
2019-01-26T18:45:50.786Z,25.25
2019-01-26T19:00:51.581Z,26.27
2019-01-26T19:15:58.078Z,25.55
2019-01-26T19:30:52.052Z,23.92
2019-01-26T19:45:52.089Z,25.88
2019-01-26T20:00:51.852Z,25.20
2019-01-26T20:15:55.786Z,25.23
2019-01-26T20:30:53.061Z,25.75
2019-01-26T20:45:51.225Z,25.72
2019-01-26T21:00:51.656Z,23.98
2019-01-26T21:15:51.447Z,24.63
2019-01-26T21:30:51.991Z,24.92
2019-01-26T21:45:53.519Z,25.02
2019-01-26T22:00:53.325Z,25.70
2019-01-26T22:15:51.356Z,20.82
2019-01-26T22:30:51.322Z,20.55
2019-01-26T22:45:50.709Z,18.57
2019-01-26T23:45:50.910Z,19.87
